Time;durP1;ratioP1;P1;durP2;ratioP2;P2;SDS_P1;SDS_P2;PMS_P1;PMS_P2;Temp;Humidity;BMP_temperature;BMP_pressure;BME280_temperature;BME280_humidity;BME280_pressure;Samples;Min_cycle;Max_cycle;Signal;HPM_P1;HPM_P2
2021/05/17 00:01:00;;;;;;;0.52;0.20;;;;;;;;;;5072556;28;20468;-83
2021/05/17 00:03:26;;;;;;;0.40;0.20;;;;;;;;;;5063779;28;20045;-84
2021/05/17 00:05:53;;;;;;;1.08;0.40;;;;;;;;;;5061490;28;20469;-84
2021/05/17 00:08:20;;;;;;;1.02;0.30;;;;;;;;;;5062532;28;20049;-84
2021/05/17 00:10:47;;;;;;;1.13;0.22;;;;;;;;;;5060987;28;20045;-83
2021/05/17 00:13:13;;;;;;;1.05;0.40;;;;;;;;;;5061047;28;20041;-82
2021/05/17 00:15:39;;;;;;;0.55;0.30;;;;;;;;;;5061662;28;20040;-82
2021/05/17 00:18:06;;;;;;;0.60;0.30;;;;;;;;;;5076138;28;20469;-82
2021/05/17 00:20:32;;;;;;;1.17;0.30;;;;;;;;;;5061692;28;20412;-82
2021/05/17 00:22:58;;;;;;;0.88;0.30;;;;;;;;;;5062974;28;20053;-83
2021/05/17 00:25:27;;;;;;;1.83;0.35;;;;;;;;;;5063773;28;20036;-82
2021/05/17 00:27:55;;;;;;;0.30;0.25;;;;;;;;;;5063260;28;20037;-83
2021/05/17 00:30:23;;;;;;;1.48;0.40;;;;;;;;;;5062805;28;20040;-84
2021/05/17 00:32:49;;;;;;;0.60;0.30;;;;;;;;;;5063366;28;20040;-83
2021/05/17 00:35:17;;;;;;;0.88;0.25;;;;;;;;;;5062296;28;20401;-83
2021/05/17 00:37:43;;;;;;;0.45;0.20;;;;;;;;;;5063699;28;20099;-84
2021/05/17 00:40:11;;;;;;;0.20;0.13;;;;;;;;;;5062801;28;20048;-83
2021/05/17 00:42:38;;;;;;;0.40;0.20;;;;;;;;;;5059417;28;20052;-85
2021/05/17 00:45:06;;;;;;;0.38;0.30;;;;;;;;;;5061084;28;20047;-82
2021/05/17 00:47:32;;;;;;;2.58;0.35;;;;;;;;;;5060087;28;20052;-82
2021/05/17 00:49:58;;;;;;;0.57;0.43;;;;;;;;;;5061513;28;20048;-82
2021/05/17 00:52:26;;;;;;;0.50;0.25;;;;;;;;;;5061515;28;20037;-82
2021/05/17 00:54:53;;;;;;;0.30;0.30;;;;;;;;;;5062068;28;20478;-82
2021/05/17 00:57:19;;;;;;;1.77;0.63;;;;;;;;;;5060027;28;20041;-83
2021/05/17 00:59:47;;;;;;;1.27;0.22;;;;;;;;;;5060871;28;20060;-83
2021/05/17 01:02:13;;;;;;;1.88;0.70;;;;;;;;;;5066314;28;20531;-82
2021/05/17 01:04:39;;;;;;;0.30;0.30;;;;;;;;;;5061088;28;20124;-83
2021/05/17 01:07:06;;;;;;;0.40;0.32;;;;;;;;;;5029527;28;20046;-82
2021/05/17 01:09:32;;;;;;;0.52;0.40;;;;;;;;;;5040308;28;20037;-83
2021/05/17 01:11:59;;;;;;;1.75;0.55;;;;;;;;;;5041514;28;20053;-83
2021/05/17 01:14:25;;;;;;;0.55;0.40;;;;;;;;;;5039733;28;20607;-85
2021/05/17 01:16:54;;;;;;;2.30;0.60;;;;;;;;;;5048222;28;20043;-84
2021/05/17 01:19:25;;;;;;;1.65;0.65;;;;;;;;;;5060651;28;20048;-82
2021/05/17 01:21:57;;;;;;;0.65;0.30;;;;;;;;;;5059776;28;20037;-83
2021/05/17 01:24:25;;;;;;;1.77;0.43;;;;;;;;;;5061048;28;20466;-83
2021/05/17 01:26:51;;;;;;;1.77;0.50;;;;;;;;;;5062219;28;20036;-83
2021/05/17 01:29:17;;;;;;;1.27;0.32;;;;;;;;;;5059774;28;20049;-84
2021/05/17 01:31:43;;;;;;;1.23;0.65;;;;;;;;;;5059693;28;20114;-85
2021/05/17 01:34:10;;;;;;;0.38;0.28;;;;;;;;;;5059984;28;20045;-83
2021/05/17 01:36:37;;;;;;;2.10;0.50;;;;;;;;;;5059827;28;20093;-82
2021/05/17 01:39:05;;;;;;;0.55;0.40;;;;;;;;;;5060491;28;20037;-82
2021/05/17 01:41:33;;;;;;;1.92;0.57;;;;;;;;;;5059951;28;20044;-83
2021/05/17 01:43:59;;;;;;;0.80;0.40;;;;;;;;;;5060050;28;20041;-82
2021/05/17 01:46:26;;;;;;;1.83;0.55;;;;;;;;;;5059633;28;20076;-82
2021/05/17 01:48:55;;;;;;;0.63;0.32;;;;;;;;;;5060539;28;20045;-82
2021/05/17 01:51:21;;;;;;;0.63;0.50;;;;;;;;;;5060357;28;20045;-81
2021/05/17 01:53:48;;;;;;;1.63;0.30;;;;;;;;;;5041233;28;20048;-83
2021/05/17 01:56:15;;;;;;;3.88;0.68;;;;;;;;;;5059008;28;20045;-82
2021/05/17 01:58:42;;;;;;;3.08;0.40;;;;;;;;;;5057548;28;20041;-82
2021/05/17 02:01:11;;;;;;;0.38;0.22;;;;;;;;;;5038731;28;20042;-82
2021/05/17 02:03:39;;;;;;;3.15;0.52;;;;;;;;;;5042032;28;20047;-83
2021/05/17 02:06:06;;;;;;;3.10;0.60;;;;;;;;;;5046305;28;20041;-83
2021/05/17 02:08:32;;;;;;;0.80;0.40;;;;;;;;;;5057709;28;20047;-82
2021/05/17 02:10:59;;;;;;;1.33;0.30;;;;;;;;;;5059000;28;20045;-83
2021/05/17 02:13:26;;;;;;;1.85;0.40;;;;;;;;;;5059311;28;20041;-83
2021/05/17 02:15:54;;;;;;;0.32;0.20;;;;;;;;;;5058954;28;20052;-84
2021/05/17 02:18:20;;;;;;;1.80;0.38;;;;;;;;;;5058332;28;20397;-83
2021/05/17 02:20:47;;;;;;;0.10;0.10;;;;;;;;;;5057135;28;20045;-83
2021/05/17 02:23:16;;;;;;;2.47;0.43;;;;;;;;;;5054128;28;20048;-83
2021/05/17 02:25:42;;;;;;;0.47;0.25;;;;;;;;;;5047787;28;20037;-83
2021/05/17 02:28:09;;;;;;;0.40;0.20;;;;;;;;;;5058568;28;20041;-84
2021/05/17 02:30:37;;;;;;;1.33;0.25;;;;;;;;;;5058129;28;20053;-82
2021/05/17 02:33:04;;;;;;;2.63;0.30;;;;;;;;;;5058974;28;20045;-82
2021/05/17 02:35:31;;;;;;;0.63;0.20;;;;;;;;;;5059897;28;20045;-82
2021/05/17 02:37:57;;;;;;;0.30;0.20;;;;;;;;;;5058606;28;20393;-82
2021/05/17 02:40:24;;;;;;;0.20;0.20;;;;;;;;;;5059273;28;20048;-82
2021/05/17 02:42:51;;;;;;;0.47;0.40;;;;;;;;;;5060121;28;20041;-82
2021/05/17 02:45:19;;;;;;;1.23;0.20;;;;;;;;;;5058217;28;20413;-83
2021/05/17 02:47:45;;;;;;;0.10;0.10;;;;;;;;;;5050929;28;20175;-83
2021/05/17 02:50:15;;;;;;;0.88;0.30;;;;;;;;;;5061974;28;20041;-83
2021/05/17 02:52:44;;;;;;;0.75;0.35;;;;;;;;;;5062038;28;20457;-82
2021/05/17 02:55:12;;;;;;;0.45;0.20;;;;;;;;;;5059088;28;20091;-82
2021/05/17 02:57:40;;;;;;;0.40;0.15;;;;;;;;;;5059207;28;20033;-83
2021/05/17 03:00:10;;;;;;;0.80;0.25;;;;;;;;;;5059532;28;20033;-82
2021/05/17 03:02:44;;;;;;;0.50;0.30;;;;;;;;;;5059569;28;20045;-81
2021/05/17 03:05:14;;;;;;;0.30;0.20;;;;;;;;;;5061317;28;20091;-81
2021/05/17 03:07:41;;;;;;;0.20;0.10;;;;;;;;;;5055770;28;20068;-83
2021/05/17 03:10:08;;;;;;;0.77;0.40;;;;;;;;;;5054296;28;20062;-82
2021/05/17 03:12:37;;;;;;;0.80;0.30;;;;;;;;;;5058343;28;20656;-82
2021/05/17 03:15:05;;;;;;;0.45;0.20;;;;;;;;;;5058682;28;20037;-82
2021/05/17 03:17:31;;;;;;;0.93;0.22;;;;;;;;;;5059299;28;20041;-83
2021/05/17 03:19:57;;;;;;;0.65;0.25;;;;;;;;;;5059085;28;20045;-82
2021/05/17 03:22:25;;;;;;;0.10;0.10;;;;;;;;;;5057360;28;20044;-81
2021/05/17 03:24:52;;;;;;;0.43;0.20;;;;;;;;;;5059115;28;20040;-82
2021/05/17 03:27:20;;;;;;;0.60;0.20;;;;;;;;;;5058821;28;20041;-82
2021/05/17 03:29:46;;;;;;;0.90;0.40;;;;;;;;;;5059474;28;20041;-82
2021/05/17 03:32:12;;;;;;;1.45;0.20;;;;;;;;;;5059119;28;20037;-82
2021/05/17 03:34:39;;;;;;;0.50;0.20;;;;;;;;;;5062748;28;20048;-82
2021/05/17 03:37:05;;;;;;;2.67;0.57;;;;;;;;;;5062327;28;20131;-83
2021/05/17 03:39:31;;;;;;;1.58;0.40;;;;;;;;;;5061619;28;20040;-82
2021/05/17 03:41:57;;;;;;;2.30;0.40;;;;;;;;;;5062330;28;20045;-83
2021/05/17 03:44:23;;;;;;;0.52;0.30;;;;;;;;;;5061200;28;20381;-82
2021/05/17 03:46:50;;;;;;;1.52;0.60;;;;;;;;;;5061049;28;20106;-82
2021/05/17 03:49:16;;;;;;;5.32;0.50;;;;;;;;;;5062724;28;20061;-83
2021/05/17 03:51:42;;;;;;;4.57;0.88;;;;;;;;;;5061261;28;20049;-83
2021/05/17 03:54:08;;;;;;;3.03;1.00;;;;;;;;;;5063080;28;20049;-81
2021/05/17 03:56:34;;;;;;;0.45;0.32;;;;;;;;;;5063123;28;20040;-81
2021/05/17 03:59:00;;;;;;;1.50;0.80;;;;;;;;;;5062400;28;20049;-82
2021/05/17 04:01:27;;;;;;;1.90;0.40;;;;;;;;;;5061549;28;20049;-83
2021/05/17 04:03:54;;;;;;;1.55;0.80;;;;;;;;;;5063855;28;20064;-82
2021/05/17 04:06:26;;;;;;;2.33;0.50;;;;;;;;;;5063587;28;20405;-82
2021/05/17 04:14:21;;;;;;;0.98;0.40;;;;;;;;;;5059922;28;20488;-82
2021/05/17 04:16:47;;;;;;;0.82;0.50;;;;;;;;;;5058744;28;20053;-82
2021/05/17 04:19:13;;;;;;;2.88;0.77;;;;;;;;;;5060863;28;20094;-82
2021/05/17 04:21:39;;;;;;;5.20;0.90;;;;;;;;;;5060921;28;20377;-82
2021/05/17 04:24:06;;;;;;;1.77;0.52;;;;;;;;;;5060281;28;20045;-83
2021/05/17 04:26:32;;;;;;;1.95;0.75;;;;;;;;;;5060325;28;20045;-83
2021/05/17 04:28:59;;;;;;;1.55;0.47;;;;;;;;;;5058715;28;20076;-84
2021/05/17 04:31:25;;;;;;;2.53;0.70;;;;;;;;;;5060534;28;20045;-83
2021/05/17 04:33:51;;;;;;;1.88;0.52;;;;;;;;;;5058959;28;20041;-83
2021/05/17 04:36:18;;;;;;;2.47;0.70;;;;;;;;;;5060394;28;20044;-83
2021/05/17 04:38:44;;;;;;;3.33;0.60;;;;;;;;;;5059208;28;20048;-84
2021/05/17 04:41:10;;;;;;;3.15;0.50;;;;;;;;;;5060785;28;20036;-82
2021/05/17 04:43:36;;;;;;;2.45;0.70;;;;;;;;;;5060910;28;20814;-82
2021/05/17 04:46:03;;;;;;;5.13;0.70;;;;;;;;;;5060329;28;20044;-83
2021/05/17 04:48:29;;;;;;;6.03;1.02;;;;;;;;;;5060562;28;20107;-83
2021/05/17 04:50:55;;;;;;;3.13;0.60;;;;;;;;;;5060501;28;20041;-82
2021/05/17 04:53:21;;;;;;;2.70;0.70;;;;;;;;;;5060827;28;20040;-83
2021/05/17 04:55:47;;;;;;;2.55;0.77;;;;;;;;;;5060310;28;20045;-82
2021/05/17 04:58:14;;;;;;;1.85;0.50;;;;;;;;;;5044191;28;20053;-84
2021/05/17 05:00:40;;;;;;;3.80;0.90;;;;;;;;;;5060964;28;20048;-83
2021/05/17 05:03:06;;;;;;;8.77;1.73;;;;;;;;;;5063329;28;20079;-84
2021/05/17 05:05:32;;;;;;;5.95;1.25;;;;;;;;;;5065389;28;20116;-84
2021/05/17 05:07:58;;;;;;;6.53;1.20;;;;;;;;;;5050186;28;20049;-83
2021/05/17 05:10:24;;;;;;;5.85;1.15;;;;;;;;;;5063503;28;20045;-85
2021/05/17 05:12:50;;;;;;;4.80;1.02;;;;;;;;;;5066521;28;20040;-84
2021/05/17 05:15:16;;;;;;;6.80;1.20;;;;;;;;;;5066447;28;20048;-85
2021/05/17 05:17:42;;;;;;;8.55;1.92;;;;;;;;;;5060699;28;20033;-84
2021/05/17 05:20:11;;;;;;;10.90;1.40;;;;;;;;;;5057838;28;20052;-84
2021/05/17 05:22:37;;;;;;;3.55;1.13;;;;;;;;;;5058352;28;20073;-85
2021/05/17 05:25:05;;;;;;;6.65;1.50;;;;;;;;;;5038926;28;20052;-85
2021/05/17 05:27:35;;;;;;;3.05;1.02;;;;;;;;;;5058045;28;20049;-85
2021/05/17 05:30:17;;;;;;;7.18;1.73;;;;;;;;;;5058242;28;20535;-84
2021/05/17 05:32:49;;;;;;;4.47;1.33;;;;;;;;;;5048135;28;20045;-85
2021/05/17 05:35:16;;;;;;;4.72;1.25;;;;;;;;;;5060387;28;20077;-83
2021/05/17 05:37:42;;;;;;;4.15;1.25;;;;;;;;;;5059953;28;20511;-84
2021/05/17 05:40:09;;;;;;;4.28;1.13;;;;;;;;;;5050712;28;20139;-86
2021/05/17 05:42:35;;;;;;;8.38;1.15;;;;;;;;;;5048829;28;20637;-84
2021/05/17 05:45:04;;;;;;;4.88;0.98;;;;;;;;;;5049146;28;20045;-85
2021/05/17 05:47:30;;;;;;;3.63;1.05;;;;;;;;;;5045871;28;20057;-84
2021/05/17 05:49:56;;;;;;;6.00;1.38;;;;;;;;;;5056666;28;20573;-86
2021/05/17 05:52:23;;;;;;;4.97;1.42;;;;;;;;;;5052484;28;20052;-86
2021/05/17 05:54:50;;;;;;;6.20;1.23;;;;;;;;;;5059087;28;20057;-84
2021/05/17 05:57:17;;;;;;;4.55;1.25;;;;;;;;;;5054041;28;20049;-85
2021/05/17 05:59:43;;;;;;;5.28;1.05;;;;;;;;;;5056655;28;20100;-86
2021/05/17 06:02:09;;;;;;;4.38;1.27;;;;;;;;;;5057888;28;20056;-85
2021/05/17 06:04:35;;;;;;;6.70;0.90;;;;;;;;;;5053095;28;20077;-85
2021/05/17 06:07:01;;;;;;;5.25;1.52;;;;;;;;;;5054434;28;20041;-87
2021/05/17 06:09:29;;;;;;;4.97;1.10;;;;;;;;;;5045866;28;20037;-85
2021/05/17 06:11:55;;;;;;;6.75;1.33;;;;;;;;;;5054515;28;20560;-81
2021/05/17 06:14:22;;;;;;;6.57;1.00;;;;;;;;;;5052666;28;20465;-84
2021/05/17 06:16:49;;;;;;;3.40;0.90;;;;;;;;;;5047188;28;20474;-85
2021/05/17 06:19:16;;;;;;;6.70;1.13;;;;;;;;;;5052897;28;21367;-81
2021/05/17 06:21:42;;;;;;;2.47;1.00;;;;;;;;;;5051353;28;20095;-85
2021/05/17 06:24:11;;;;;;;5.32;1.10;;;;;;;;;;5054680;28;20054;-86
2021/05/17 06:26:38;;;;;;;5.93;1.13;;;;;;;;;;5046717;28;20405;-85
2021/05/17 06:29:06;;;;;;;2.58;1.15;;;;;;;;;;5047471;28;20068;-85
2021/05/17 06:31:33;;;;;;;3.63;0.88;;;;;;;;;;5049008;28;20052;-83
2021/05/17 06:34:00;;;;;;;4.30;0.77;;;;;;;;;;5058177;28;20380;-84
2021/05/17 06:36:26;;;;;;;3.47;1.10;;;;;;;;;;5058749;28;20052;-85
2021/05/17 06:38:53;;;;;;;4.00;1.30;;;;;;;;;;5048450;28;20049;-85
2021/05/17 06:41:19;;;;;;;3.65;0.90;;;;;;;;;;5055439;28;20040;-84
2021/05/17 06:43:47;;;;;;;4.75;1.15;;;;;;;;;;5059773;28;20547;-84
2021/05/17 06:46:14;;;;;;;3.92;1.00;;;;;;;;;;5057279;28;20045;-84
2021/05/17 06:48:43;;;;;;;4.03;1.05;;;;;;;;;;5058735;28;20143;-85
2021/05/17 06:51:12;;;;;;;4.38;0.95;;;;;;;;;;5058797;28;20037;-83
2021/05/17 06:53:40;;;;;;;6.30;1.42;;;;;;;;;;5059362;28;20101;-84
2021/05/17 06:56:15;;;;;;;3.75;0.80;;;;;;;;;;5057863;28;20040;-84
2021/05/17 06:58:53;;;;;;;6.40;1.20;;;;;;;;;;5055091;28;20072;-84
2021/05/17 07:01:21;;;;;;;3.08;0.80;;;;;;;;;;5059739;28;20052;-85
2021/05/17 07:03:48;;;;;;;4.75;1.00;;;;;;;;;;5059505;28;20049;-83
2021/05/17 07:06:19;;;;;;;3.33;1.27;;;;;;;;;;5059166;28;20041;-84
2021/05/17 07:11:45;;;;;;;5.15;1.25;;;;;;;;;;5062148;28;20064;-85
2021/05/17 07:14:11;;;;;;;5.03;1.10;;;;;;;;;;5048731;28;20037;-82
2021/05/17 07:16:38;;;;;;;5.38;1.83;;;;;;;;;;5063143;28;20037;-81
2021/05/17 07:19:04;;;;;;;4.00;1.10;;;;;;;;;;5064385;28;20052;-82
2021/05/17 07:24:14;;;;;;;7.13;1.52;;;;;;;;;;5062744;28;20098;-82
2021/05/17 07:26:40;;;;;;;3.92;1.40;;;;;;;;;;5062729;28;20053;-82
2021/05/17 07:29:08;;;;;;;3.47;1.23;;;;;;;;;;5062904;28;20094;-83
2021/05/17 07:31:34;;;;;;;4.00;1.20;;;;;;;;;;5063713;28;20037;-82
2021/05/17 07:34:01;;;;;;;2.55;0.85;;;;;;;;;;5063993;28;20051;-83
2021/05/17 07:36:27;;;;;;;2.85;0.88;;;;;;;;;;5063882;28;20037;-83
2021/05/17 07:38:53;;;;;;;4.18;0.90;;;;;;;;;;5063085;28;20115;-84
2021/05/17 07:41:20;;;;;;;5.53;1.73;;;;;;;;;;5063023;28;20037;-82
2021/05/17 07:43:46;;;;;;;4.93;1.00;;;;;;;;;;5063684;28;20052;-82
2021/05/17 07:46:13;;;;;;;4.60;0.95;;;;;;;;;;5063051;28;20049;-83
2021/05/17 07:51:20;;;;;;;4.57;0.90;;;;;;;;;;5062306;28;20033;-86
2021/05/17 07:53:46;;;;;;;3.42;0.82;;;;;;;;;;5061909;28;20044;-85
2021/05/17 07:56:13;;;;;;;5.75;1.02;;;;;;;;;;5062184;28;20051;-86
2021/05/17 07:58:39;;;;;;;4.72;0.88;;;;;;;;;;5063696;28;20048;-84
2021/05/17 08:01:05;;;;;;;2.35;0.60;;;;;;;;;;5061768;28;20520;-84
2021/05/17 08:03:31;;;;;;;1.80;0.50;;;;;;;;;;5049394;28;20127;-84
2021/05/17 08:05:57;;;;;;;2.15;0.68;;;;;;;;;;5061372;28;20059;-85
2021/05/17 08:08:24;;;;;;;1.48;0.65;;;;;;;;;;5060350;28;20033;-86
2021/05/17 08:10:50;;;;;;;1.52;0.57;;;;;;;;;;5059098;28;20057;-86
2021/05/17 08:13:16;;;;;;;2.85;0.75;;;;;;;;;;5063115;28;20041;-85
2021/05/17 08:15:42;;;;;;;1.98;0.60;;;;;;;;;;5070804;28;20076;-82
2021/05/17 08:18:09;;;;;;;4.43;1.00;;;;;;;;;;5073445;28;20049;-82
2021/05/17 08:20:35;;;;;;;1.90;0.95;;;;;;;;;;5061960;28;20128;-81
2021/05/17 08:23:01;;;;;;;2.45;0.60;;;;;;;;;;5060521;28;20041;-84
2021/05/17 08:25:31;;;;;;;2.38;0.75;;;;;;;;;;5070431;28;20235;-83
2021/05/17 08:27:58;;;;;;;3.38;0.80;;;;;;;;;;5045501;28;20055;-84
2021/05/17 08:30:25;;;;;;;3.63;1.00;;;;;;;;;;5060990;28;20037;-85
2021/05/17 08:32:51;;;;;;;3.08;0.45;;;;;;;;;;5060912;28;20051;-82
2021/05/17 08:35:18;;;;;;;3.03;0.73;;;;;;;;;;5073841;28;20049;-84
2021/05/17 08:37:44;;;;;;;2.80;0.60;;;;;;;;;;5060882;28;20473;-83
2021/05/17 08:40:11;;;;;;;3.83;0.77;;;;;;;;;;5065756;28;20119;-82
2021/05/17 08:42:40;;;;;;;1.15;0.43;;;;;;;;;;5060704;28;20610;-84
2021/05/17 08:45:07;;;;;;;2.70;0.43;;;;;;;;;;5060269;28;20049;-84
2021/05/17 08:47:33;;;;;;;1.40;0.60;;;;;;;;;;5067681;28;20473;-84
2021/05/17 08:49:59;;;;;;;1.55;0.70;;;;;;;;;;5063095;28;20049;-84
2021/05/17 08:52:25;;;;;;;1.55;0.75;;;;;;;;;;5059442;28;20037;-84
2021/05/17 08:54:51;;;;;;;1.13;0.50;;;;;;;;;;5059324;28;20043;-85
2021/05/17 08:57:17;;;;;;;2.28;1.00;;;;;;;;;;5060380;28;20041;-83
2021/05/17 08:59:44;;;;;;;2.95;0.82;;;;;;;;;;5057685;28;20037;-85
2021/05/17 09:02:11;;;;;;;4.38;2.35;;;;;;;;;;5059936;28;20045;-83
2021/05/17 09:04:37;;;;;;;3.92;2.10;;;;;;;;;;5052028;28;20040;-84
2021/05/17 09:07:03;;;;;;;2.63;1.52;;;;;;;;;;5059583;28;20056;-85
2021/05/17 09:09:32;;;;;;;1.38;0.77;;;;;;;;;;5061680;28;20040;-86
2021/05/17 09:11:59;;;;;;;2.90;0.55;;;;;;;;;;5056948;28;20091;-84
2021/05/17 09:14:26;;;;;;;1.67;0.50;;;;;;;;;;5058754;28;20041;-83
2021/05/17 09:16:56;;;;;;;1.73;0.43;;;;;;;;;;5059387;28;20045;-85
2021/05/17 09:19:23;;;;;;;1.05;0.40;;;;;;;;;;5059808;28;20041;-85
2021/05/17 09:22:08;;;;;;;1.65;0.50;;;;;;;;;;5060120;28;20140;-82
2021/05/17 09:24:49;;;;;;;1.15;0.40;;;;;;;;;;5056614;28;20041;-84
2021/05/17 09:27:23;;;;;;;3.25;0.77;;;;;;;;;;5060240;28;20072;-83
2021/05/17 09:29:50;;;;;;;1.25;0.43;;;;;;;;;;5060816;28;20052;-84
2021/05/17 09:32:25;;;;;;;0.98;0.40;;;;;;;;;;5058505;28;20051;-85
2021/05/17 09:35:04;;;;;;;1.05;0.65;;;;;;;;;;5063069;28;20057;-85
2021/05/17 09:37:43;;;;;;;3.97;0.77;;;;;;;;;;5063019;28;20040;-84
2021/05/17 09:40:17;;;;;;;4.53;0.60;;;;;;;;;;5049311;28;20044;-81
2021/05/17 09:42:43;;;;;;;1.80;0.60;;;;;;;;;;5062201;28;20041;-84
2021/05/17 09:45:11;;;;;;;3.00;0.50;;;;;;;;;;5061281;28;20049;-89
2021/05/17 09:47:38;;;;;;;1.27;0.50;;;;;;;;;;5054755;28;20044;-83
2021/05/17 09:50:05;;;;;;;0.40;0.20;;;;;;;;;;5049838;28;20041;-83
2021/05/17 09:52:33;;;;;;;4.45;0.70;;;;;;;;;;5052036;28;20053;-84
2021/05/17 09:55:01;;;;;;;1.73;0.40;;;;;;;;;;5048357;28;20720;-83
2021/05/17 09:57:31;;;;;;;1.33;0.40;;;;;;;;;;5050791;28;20053;-83
2021/05/17 09:59:58;;;;;;;1.48;0.45;;;;;;;;;;5053261;28;20045;-85
2021/05/17 10:02:50;;;;;;;0.85;0.35;;;;;;;;;;5050477;28;20243;-85
2021/05/17 10:05:19;;;;;;;0.88;0.32;;;;;;;;;;5054546;28;20041;-83
2021/05/17 10:07:47;;;;;;;3.03;0.50;;;;;;;;;;5049697;28;20132;-79
2021/05/17 10:10:14;;;;;;;0.63;0.50;;;;;;;;;;5052690;28;20059;-81
2021/05/17 10:12:40;;;;;;;1.55;0.70;;;;;;;;;;5055388;28;20137;-83
2021/05/17 10:15:08;;;;;;;2.33;0.90;;;;;;;;;;5056060;28;20041;-85
2021/05/17 10:17:34;;;;;;;1.10;0.40;;;;;;;;;;5054008;28;20040;-85
2021/05/17 10:20:01;;;;;;;1.25;0.68;;;;;;;;;;5054280;28;20041;-85
2021/05/17 10:22:28;;;;;;;2.40;0.73;;;;;;;;;;5056288;28;20071;-83
2021/05/17 10:24:58;;;;;;;2.40;0.50;;;;;;;;;;5053976;28;20041;-86
2021/05/17 10:27:29;;;;;;;1.02;0.68;;;;;;;;;;5056239;28;20048;-86
2021/05/17 10:30:38;;;;;;;1.65;0.40;;;;;;;;;;5048755;28;20071;-85
2021/05/17 10:33:06;;;;;;;1.60;0.50;;;;;;;;;;5049600;28;20075;-85
2021/05/17 10:35:47;;;;;;;2.00;0.70;;;;;;;;;;5051574;28;20641;-84
2021/05/17 10:38:20;;;;;;;3.05;0.80;;;;;;;;;;5048288;28;20045;-84
2021/05/17 10:40:49;;;;;;;2.90;0.70;;;;;;;;;;5047340;28;20055;-84
2021/05/17 10:43:22;;;;;;;2.65;1.05;;;;;;;;;;5059204;28;20057;-85
2021/05/17 10:48:35;;;;;;;2.35;0.70;;;;;;;;;;5050125;28;20072;-83
2021/05/17 10:51:15;;;;;;;1.02;0.50;;;;;;;;;;5063002;28;20045;-82
2021/05/17 10:53:50;;;;;;;2.90;0.98;;;;;;;;;;5060898;28;20079;-81
2021/05/17 10:56:18;;;;;;;2.42;0.82;;;;;;;;;;5074984;28;20036;-83
2021/05/17 11:01:50;;;;;;;3.85;0.98;;;;;;;;;;5058880;28;20095;-83
2021/05/17 11:04:32;;;;;;;2.97;0.70;;;;;;;;;;5074587;28;20044;-81
2021/05/17 11:07:20;;;;;;;1.25;0.50;;;;;;;;;;5084616;28;20048;-82
2021/05/17 11:09:56;;;;;;;2.97;0.85;;;;;;;;;;5055405;28;20052;-83
2021/05/17 11:12:57;;;;;;;1.00;0.43;;;;;;;;;;5076065;28;20041;-84
2021/05/17 11:15:28;;;;;;;1.67;0.50;;;;;;;;;;5068422;28;20041;-82
2021/05/17 11:18:19;;;;;;;1.35;0.55;;;;;;;;;;5066825;28;20049;-84
2021/05/17 11:20:51;;;;;;;1.88;0.80;;;;;;;;;;5070107;28;20059;-83
2021/05/17 11:23:20;;;;;;;2.50;0.60;;;;;;;;;;5063822;28;20056;-84
2021/05/17 11:25:52;;;;;;;1.92;0.50;;;;;;;;;;5063543;28;20033;-83
2021/05/17 11:28:19;;;;;;;2.05;0.60;;;;;;;;;;5060452;28;20033;-84
2021/05/17 11:30:46;;;;;;;1.05;0.40;;;;;;;;;;5060930;28;20041;-84
2021/05/17 11:33:13;;;;;;;2.08;0.40;;;;;;;;;;5070665;28;20041;-82
2021/05/17 11:36:01;;;;;;;9.95;2.35;;;;;;;;;;5047302;28;20045;-78
2021/05/17 11:38:28;;;;;;;3.67;1.17;;;;;;;;;;5062825;28;20049;-80
2021/05/17 11:40:54;;;;;;;2.20;0.50;;;;;;;;;;5057060;28;20389;-81
2021/05/17 11:43:21;;;;;;;3.17;0.93;;;;;;;;;;5043629;28;20045;-80
2021/05/17 11:45:47;;;;;;;1.52;0.60;;;;;;;;;;5041771;28;20041;-80
2021/05/17 11:48:13;;;;;;;4.28;0.60;;;;;;;;;;5041347;28;20042;-80
2021/05/17 11:50:39;;;;;;;1.83;0.60;;;;;;;;;;5053852;28;20524;-81
2021/05/17 11:53:06;;;;;;;2.97;1.10;;;;;;;;;;5061015;28;20044;-81
2021/05/17 11:55:45;;;;;;;2.80;0.98;;;;;;;;;;5060967;28;20033;-83
2021/05/17 11:58:11;;;;;;;2.20;1.10;;;;;;;;;;5061308;28;20037;-81
2021/05/17 12:00:37;;;;;;;3.25;1.40;;;;;;;;;;5061899;28;20100;-84
2021/05/17 12:03:09;;;;;;;4.10;1.55;;;;;;;;;;5061753;28;20045;-82
2021/05/17 12:05:36;;;;;;;4.93;1.58;;;;;;;;;;5061264;28;20494;-83
2021/05/17 12:08:02;;;;;;;1.65;0.80;;;;;;;;;;5062538;28;20049;-84
2021/05/17 12:10:34;;;;;;;3.58;1.00;;;;;;;;;;5064255;28;20041;-80
2021/05/17 12:13:07;;;;;;;1.05;0.52;;;;;;;;;;5055812;28;20063;-85
2021/05/17 12:15:34;;;;;;;2.03;0.40;;;;;;;;;;5057923;28;20044;-85
2021/05/17 12:18:07;;;;;;;3.67;0.90;;;;;;;;;;5064323;28;20037;-83
2021/05/17 12:20:33;;;;;;;1.92;0.80;;;;;;;;;;5064360;28;20045;-84
2021/05/17 12:22:59;;;;;;;1.10;0.52;;;;;;;;;;5060510;28;20385;-84
2021/05/17 12:25:26;;;;;;;2.00;0.80;;;;;;;;;;5061993;28;20049;-84
2021/05/17 12:27:54;;;;;;;2.25;0.70;;;;;;;;;;5061425;28;20124;-85
2021/05/17 12:30:23;;;;;;;2.28;1.00;;;;;;;;;;5062358;28;20070;-84
2021/05/17 12:32:54;;;;;;;2.70;0.80;;;;;;;;;;5061757;28;20044;-86
2021/05/17 12:35:26;;;;;;;1.95;0.60;;;;;;;;;;5063652;28;20374;-85
2021/05/17 12:37:54;;;;;;;1.88;0.57;;;;;;;;;;5063360;28;20051;-84
2021/05/17 12:40:31;;;;;;;1.33;0.50;;;;;;;;;;5057176;28;20118;-85
2021/05/17 12:43:10;;;;;;;4.68;0.68;;;;;;;;;;5043192;28;20084;-83
2021/05/17 12:45:39;;;;;;;3.30;0.57;;;;;;;;;;5059118;28;20072;-84
2021/05/17 12:48:18;;;;;;;2.05;0.47;;;;;;;;;;5061618;28;20362;-86
2021/05/17 12:50:46;;;;;;;2.45;0.40;;;;;;;;;;5062238;28;20037;-84
2021/05/17 12:53:13;;;;;;;2.78;0.60;;;;;;;;;;5062040;28;20045;-84
2021/05/17 12:55:42;;;;;;;1.50;0.65;;;;;;;;;;5061761;28;20055;-82
2021/05/17 12:58:09;;;;;;;1.85;0.70;;;;;;;;;;5061462;28;20048;-83
2021/05/17 13:00:41;;;;;;;2.13;0.50;;;;;;;;;;5061382;28;20037;-83
2021/05/17 13:03:10;;;;;;;2.65;1.05;;;;;;;;;;5062064;28;20202;-82
2021/05/17 13:05:51;;;;;;;2.38;0.50;;;;;;;;;;5061846;28;20045;-86
2021/05/17 13:08:18;;;;;;;2.03;0.50;;;;;;;;;;5062778;28;20048;-84
2021/05/17 13:10:55;;;;;;;3.75;1.50;;;;;;;;;;5061345;28;20136;-83
2021/05/17 13:13:45;;;;;;;2.28;0.28;;;;;;;;;;5060871;28;20079;-83
2021/05/17 13:16:19;;;;;;;1.10;0.30;;;;;;;;;;5060544;28;20037;-83
2021/05/17 13:18:57;;;;;;;2.15;0.43;;;;;;;;;;5061484;28;20488;-84
2021/05/17 13:21:33;;;;;;;1.38;0.60;;;;;;;;;;5062123;28;20049;-86
2021/05/17 13:24:20;;;;;;;0.68;0.35;;;;;;;;;;5061466;28;20122;-84
2021/05/17 13:30:04;;;;;;;1.08;0.43;;;;;;;;;;5065105;28;20073;-87
2021/05/17 13:32:32;;;;;;;2.35;0.60;;;;;;;;;;5064827;28;20052;-83
2021/05/17 13:34:59;;;;;;;1.08;0.50;;;;;;;;;;5064858;28;20110;-86
2021/05/17 13:37:28;;;;;;;1.15;0.43;;;;;;;;;;5066389;28;20045;-84
2021/05/17 13:39:55;;;;;;;1.50;0.77;;;;;;;;;;5068604;28;20055;-84
2021/05/17 13:42:22;;;;;;;0.50;0.30;;;;;;;;;;5068922;28;20045;-85
2021/05/17 13:44:49;;;;;;;2.65;0.60;;;;;;;;;;5066651;28;20135;-83
2021/05/17 13:47:15;;;;;;;1.70;0.32;;;;;;;;;;5059193;28;20533;-83
2021/05/17 13:49:41;;;;;;;2.03;0.80;;;;;;;;;;5061620;28;20049;-81
2021/05/17 13:52:08;;;;;;;0.90;0.30;;;;;;;;;;5049168;28;20051;-83
2021/05/17 13:54:35;;;;;;;2.30;0.52;;;;;;;;;;5058958;28;20049;-81
2021/05/17 13:57:05;;;;;;;2.15;0.63;;;;;;;;;;5059858;28;20040;-83
2021/05/17 13:59:31;;;;;;;1.08;0.80;;;;;;;;;;5060493;28;20037;-82
2021/05/17 14:01:58;;;;;;;1.48;1.00;;;;;;;;;;5060398;28;20128;-84
2021/05/17 14:04:26;;;;;;;3.30;1.73;;;;;;;;;;5059465;28;20037;-84
2021/05/17 14:06:52;;;;;;;1.42;0.52;;;;;;;;;;5060280;28;20049;-85
2021/05/17 14:09:19;;;;;;;0.57;0.22;;;;;;;;;;5040402;28;20071;-84
2021/05/17 14:11:47;;;;;;;0.30;0.30;;;;;;;;;;5040624;28;20037;-84
2021/05/17 14:14:16;;;;;;;1.95;0.90;;;;;;;;;;5054547;28;20041;-85
2021/05/17 14:16:44;;;;;;;0.80;0.60;;;;;;;;;;5060496;28;20041;-85
2021/05/17 14:19:11;;;;;;;0.55;0.30;;;;;;;;;;5060871;28;20047;-85
2021/05/17 14:21:38;;;;;;;2.05;0.43;;;;;;;;;;5059850;28;20036;-83
2021/05/17 14:24:06;;;;;;;2.15;0.40;;;;;;;;;;5060756;28;20053;-82
2021/05/17 14:26:32;;;;;;;0.30;0.30;;;;;;;;;;5059569;28;20055;-83
2021/05/17 14:28:58;;;;;;;2.80;0.60;;;;;;;;;;5040644;28;20037;-82
2021/05/17 14:31:25;;;;;;;1.13;0.40;;;;;;;;;;5050356;28;20477;-83
2021/05/17 14:33:51;;;;;;;5.00;0.80;;;;;;;;;;5043828;28;20529;-82
2021/05/17 14:36:18;;;;;;;3.15;0.68;;;;;;;;;;5042488;28;20480;-82
2021/05/17 14:38:44;;;;;;;1.30;0.40;;;;;;;;;;5053177;28;20489;-82
2021/05/17 14:41:11;;;;;;;3.45;0.73;;;;;;;;;;5054282;28;20053;-82
2021/05/17 14:43:37;;;;;;;1.08;0.30;;;;;;;;;;5045980;28;20046;-83
2021/05/17 14:46:04;;;;;;;1.38;0.60;;;;;;;;;;5050420;28;20401;-84
2021/05/17 14:48:30;;;;;;;3.28;0.70;;;;;;;;;;5053987;28;20532;-84
2021/05/17 14:50:56;;;;;;;2.15;0.60;;;;;;;;;;5049019;28;20049;-84
2021/05/17 14:53:24;;;;;;;1.55;0.40;;;;;;;;;;5044290;28;20049;-85
2021/05/17 14:55:50;;;;;;;2.25;0.52;;;;;;;;;;5049276;28;20099;-83
2021/05/17 14:58:16;;;;;;;1.67;0.30;;;;;;;;;;5058820;28;20118;-85
2021/05/17 15:00:44;;;;;;;1.40;0.38;;;;;;;;;;5058213;28;20045;-83
2021/05/17 15:03:16;;;;;;;1.83;0.43;;;;;;;;;;5050717;28;20360;-83
2021/05/17 15:05:42;;;;;;;0.77;0.57;;;;;;;;;;5054453;28;20041;-83
2021/05/17 15:08:11;;;;;;;6.25;1.38;;;;;;;;;;5050179;28;20119;-83
2021/05/17 15:10:41;;;;;;;34.17;3.40;;;;;;;;;;5047097;28;20076;-85
2021/05/17 15:13:09;;;;;;;9.10;5.40;;;;;;;;;;5053818;28;20068;-85